Wrightwood, CA

4:57 PM PST on March 04, 2015 (GMT -0800)
Ontario International | Change Station
CLOSE
Current Station
Airport
Location: Ontario,
Elevation: 942 ft
Nearby Weather Stations

Elev 942 ft 34.06 °N, 117.60 °W | Updated 1 hour ago

Clear
Clear
70 °F
Feels Like 70 °F
N
0
Wind Variable Wind from North

Today
High -- | Low -- °F
--% Chance of Precip.
Yesterday
High -- | Low -- °F
Precip. -- in
6:15 AM 5:49 PM
Full, 100% visible
Pressure 30.04 in
Visibility 10.0 miles
Clouds Few 6000 ft
Few 25000 ft
Dew Point 27 °F
Humidity 20%
Rainfall 0.00 in
Snow Depth Not available.
UV 2 out of 12
Pollen 8.80 out of 12
Air Quality Not available.
Flu Activity Not available.
METAR KONT 042353Z 00000KT 10SM FEW060 FEW250 21/M03 A3006 RMK AO2 SLP173 T02111028 10222 20172 56006

More Conditions Fewer Conditions

Pressure 30.04 in
Visibility 10.0 miles
Clouds Few 6000 ft
Few 25000 ft
Dew Point 27 °F
Humidity 20%
Rainfall 0.00 in
Snow Depth Not available.
UV 2 out of 12
Pollen 8.80 out of 12
Air Quality Not available.
Flu Activity Not available.
METAR KONT 042353Z 00000KT 10SM FEW060 FEW250 21/M03 A3006 RMK AO2 SLP173 T02111028 10222 20172 56006

More Conditions Fewer Conditions

10-Day Weather Forecast

Almanac

Astronomy

Mar. 04, 2015 Rise Set
Actual Time
Civil Twilight
Nautical Twilight
Astronomical Twilight
Moon
Length of Visible Light
Length of Day
Tomorrow will be .
, % of the Moon is Illuminated

Today's Extremes

State Highs State Lows

Community

WunderPhotos

Upload Photos

1,802,608 photos uploaded!

WunderBlogs® & News

Nearby

Air Quality

  Air Quality AQ Index Pollutant
Not available.

Snow Depth

Station Depth Elevation

Earthquake Activity

City Distance Mag. Time & Date
Minimum magnitude displayed is 2.5.

Coastal Water Temperatures

Place Temperature

Nearby Weather Stations